Time;durP1;ratioP1;P1;durP2;ratioP2;P2;SDS_P1;SDS_P2;PMS_P1;PMS_P2;Temp;Humidity;BMP_temperature;BMP_pressure;BME280_temperature;BME280_humidity;BME280_pressure;Samples;Min_cycle;Max_cycle;Signal;HPM_P1;HPM_P2
2021/10/06 00:00:48;;;;;;;;;1.80;0.20;;;;;10.83;75.85;100444.78;4604301;28;2725306;-84
2021/10/06 00:03:15;;;;;;;;;1.00;1.00;;;;;10.75;76.16;100432.88;4604310;28;2727409;-85
2021/10/06 00:05:43;;;;;;;;;1.60;0.00;;;;;10.73;76.19;100435.63;4586938;28;2727361;-84
2021/10/06 00:08:10;;;;;;;;;3.80;0.80;;;;;10.73;76.01;100437.41;4603130;28;2741932;-84
2021/10/06 00:10:38;;;;;;;;;1.80;0.60;;;;;10.69;76.03;100434.94;4583435;28;2734649;-85
2021/10/06 00:13:05;;;;;;;;;0.20;0.20;;;;;10.72;76.20;100455.16;4603004;28;2729424;-84
2021/10/06 00:15:33;;;;;;;;;1.60;0.00;;;;;10.70;75.71;100454.38;4603600;28;2732558;-84
2021/10/06 00:18:00;;;;;;;;;1.80;0.00;;;;;10.61;76.24;100446.94;4604915;28;2725274;-85
2021/10/06 00:20:28;;;;;;;;;4.60;1.00;;;;;10.66;76.16;100458.16;4603929;28;2739900;-84
2021/10/06 00:22:55;;;;;;;;;3.20;0.40;;;;;10.67;76.22;100459.88;4602700;28;2734994;-86
2021/10/06 00:25:23;;;;;;;;;2.20;0.00;;;;;10.67;76.37;100466.09;4603675;28;2739852;-85
2021/10/06 00:27:51;;;;;;;;;0.80;0.80;;;;;10.63;76.08;100453.03;4604649;28;2727362;-84
2021/10/06 00:30:19;;;;;;;;;4.00;1.20;;;;;10.70;76.00;100476.53;4603882;28;2746122;-85
2021/10/06 00:32:47;;;;;;;;;1.80;0.60;;;;;10.65;76.20;100473.28;4601856;28;2743060;-86
2021/10/06 00:35:14;;;;;;;;;1.00;0.80;;;;;10.71;76.08;100478.22;4603509;28;2731583;-85
2021/10/06 00:37:42;;;;;;;;;0.20;0.20;;;;;10.70;76.12;100476.53;4586618;28;2728792;-86
2021/10/06 00:40:10;;;;;;;;;2.60;1.00;;;;;10.72;75.81;100487.09;4585387;28;2733632;-85
2021/10/06 00:42:41;;;;;;;;;2.20;0.00;;;;;10.72;75.98;100487.09;4567903;28;2729460;-86
2021/10/06 00:45:09;;;;;;;;;5.00;0.40;;;;;10.79;75.60;100500.88;4567575;28;2737773;-86
2021/10/06 00:47:37;;;;;;;;;0.80;0.00;;;;;10.75;75.69;100499.34;4586077;28;2725310;-86
2021/10/06 00:50:05;;;;;;;;;1.00;0.60;;;;;10.71;75.93;100499.50;4567364;28;2737758;-85
2021/10/06 00:52:32;;;;;;;;;2.60;0.00;;;;;10.69;75.96;100484.59;4585949;28;2722169;-85
2021/10/06 00:55:00;;;;;;;;;2.80;1.00;;;;;10.58;75.71;100482.53;4585819;28;2732577;-85
2021/10/06 00:57:27;;;;;;;;;4.00;1.20;;;;;10.52;75.91;100473.13;4584922;28;2733623;-86
2021/10/06 00:59:56;;;;;;;;;2.60;1.00;;;;;10.64;75.96;100489.31;4567523;28;2728415;-86
2021/10/06 01:02:23;;;;;;;;;2.00;1.00;;;;;10.59;76.12;100496.69;4585342;28;2733985;-85
2021/10/06 01:04:51;;;;;;;;;1.00;0.00;;;;;10.58;76.20;100497.66;4585200;28;2725255;-86
2021/10/06 01:07:18;;;;;;;;;3.00;1.00;;;;;10.63;76.11;100504.41;4585776;28;2729840;-85
2021/10/06 01:09:47;;;;;;;;;2.80;1.00;;;;;10.52;76.39;100480.25;4584898;28;2729452;-86
2021/10/06 01:12:14;;;;;;;;;2.80;0.00;;;;;10.58;76.12;100502.97;4585387;28;2734983;-86
2021/10/06 01:14:43;;;;;;;;;1.20;0.40;;;;;10.59;75.89;100505.53;4583994;28;2731527;-84
2021/10/06 01:17:10;;;;;;;;;2.60;0.80;;;;;10.40;76.29;100478.25;4567095;28;2730486;-85
2021/10/06 01:19:38;;;;;;;;;1.00;0.00;;;;;10.58;76.32;100514.44;4585699;28;2723203;-86
2021/10/06 01:22:06;;;;;;;;;4.00;0.20;;;;;10.50;75.97;100506.03;4565815;28;2737762;-85
2021/10/06 01:24:34;;;;;;;;;2.80;0.20;;;;;10.60;76.00;100519.69;4584759;28;2729460;-85
2021/10/06 01:27:01;;;;;;;;;1.80;0.60;;;;;10.58;76.12;100516.25;4585500;28;2731536;-85
2021/10/06 01:29:29;;;;;;;;;0.20;0.00;;;;;10.46;76.03;100507.16;4583768;28;2734011;-85
2021/10/06 01:31:57;;;;;;;;;0.80;0.80;;;;;10.61;76.29;100532.03;4584456;28;2730935;-85
2021/10/06 01:34:25;;;;;;;;;2.60;0.00;;;;;10.63;76.10;100525.69;4584171;28;2727700;-85
2021/10/06 01:36:54;;;;;;;;;0.80;0.20;;;;;10.49;76.27;100505.19;4584284;28;2729448;-86
2021/10/06 01:39:22;;;;;;;;;1.40;1.00;;;;;10.63;76.34;100528.34;4584522;28;2742282;-85
2021/10/06 01:41:51;;;;;;;;;5.40;0.80;;;;;10.50;76.39;100506.03;4583916;28;2741932;-83
2021/10/06 01:44:19;;;;;;;;;2.00;0.00;;;;;10.55;75.79;100514.63;4584864;28;2735683;-87
2021/10/06 01:46:47;;;;;;;;;2.60;0.80;;;;;10.63;76.05;100530.13;4585740;28;2726304;-84
2021/10/06 01:49:14;;;;;;;;;5.00;0.00;;;;;10.59;75.98;100520.59;4583001;28;2744015;-84
2021/10/06 01:51:42;;;;;;;;;0.00;0.00;;;;;10.48;76.37;100510.59;4584280;28;2728394;-84
2021/10/06 01:54:10;;;;;;;;;1.60;0.20;;;;;10.48;76.08;100511.44;4581880;28;2733666;-84
2021/10/06 01:56:38;;;;;;;;;1.00;0.80;;;;;10.65;76.10;100537.09;4571387;28;2723199;-85
2021/10/06 01:59:06;;;;;;;;;1.40;1.40;;;;;10.53;76.04;100514.72;4583864;28;2737758;-84
2021/10/06 02:01:34;;;;;;;;;0.00;0.00;;;;;10.55;76.18;100509.31;4584542;28;2725670;-84
2021/10/06 02:04:02;;;;;;;;;3.80;0.00;;;;;10.53;76.02;100513.84;4584266;28;2733607;-84
2021/10/06 02:06:29;;;;;;;;;3.00;1.00;;;;;10.48;76.01;100503.47;4567163;28;2727373;-84
2021/10/06 02:08:57;;;;;;;;;2.00;1.00;;;;;10.40;75.60;100492.41;4584570;28;2717983;-85
2021/10/06 02:11:24;;;;;;;;;2.80;0.60;;;;;10.52;76.30;100518.31;4584621;28;2725275;-85
2021/10/06 02:13:52;;;;;;;;;1.80;1.00;;;;;10.59;76.33;100529.47;4583634;28;2736696;-85
2021/10/06 02:16:19;;;;;;;;;1.00;0.00;;;;;10.63;76.50;100536.31;4583153;28;2729472;-85
2021/10/06 02:18:47;;;;;;;;;2.00;1.00;;;;;10.58;76.13;100533.06;4565363;28;2741975;-85
2021/10/06 02:21:14;;;;;;;;;2.00;1.00;;;;;10.55;76.34;100533.22;4584582;28;2728478;-85
2021/10/06 02:23:42;;;;;;;;;0.40;0.00;;;;;10.49;76.60;100514.97;4584162;28;2725274;-86
2021/10/06 02:26:09;;;;;;;;;1.40;0.40;;;;;10.61;76.09;100538.19;4584465;28;2731563;-86
2021/10/06 02:28:37;;;;;;;;;2.80;0.00;;;;;10.63;76.22;100539.00;4584230;28;2725358;-85
2021/10/06 02:31:04;;;;;;;;;1.80;0.80;;;;;10.58;76.31;100549.00;4583980;28;2735663;-86
2021/10/06 02:33:32;;;;;;;;;1.00;0.60;;;;;10.58;76.18;100554.31;4583338;28;2730470;-85
2021/10/06 02:35:59;;;;;;;;;0.00;0.00;;;;;10.60;76.25;100557.75;4588812;28;2725319;-84
2021/10/06 02:38:27;;;;;;;;;3.00;1.00;;;;;10.54;76.48;100539.47;4600953;28;2740899;-85
2021/10/06 02:40:54;;;;;;;;;1.00;1.00;;;;;10.44;76.22;100527.66;4601958;28;2725251;-84
2021/10/06 02:43:22;;;;;;;;;2.00;0.40;;;;;10.56;76.34;100555.34;4602136;28;2724216;-84
2021/10/06 02:45:49;;;;;;;;;0.40;0.00;;;;;10.40;76.38;100524.28;4601251;28;2721139;-84
2021/10/06 02:48:17;;;;;;;;;2.00;1.00;;;;;10.43;76.55;100529.47;4601864;28;2737750;-85
2021/10/06 02:50:44;;;;;;;;;2.40;0.00;;;;;10.42;76.67;100543.69;4583844;28;2727337;-84
2021/10/06 02:53:12;;;;;;;;;1.40;0.40;;;;;10.52;76.71;100560.00;4594560;28;2735671;-84
2021/10/06 02:55:39;;;;;;;;;1.80;0.00;;;;;10.32;76.10;100537.97;4600930;28;2727386;-84
2021/10/06 02:58:07;;;;;;;;;4.00;1.00;;;;;10.43;76.73;100560.47;4600867;28;2740237;-84
2021/10/06 03:00:35;;;;;;;;;1.40;0.00;;;;;10.42;76.56;100561.41;4582856;28;2733599;-84
2021/10/06 03:03:02;;;;;;;;;0.00;0.00;;;;;10.34;76.85;100553.88;4600609;28;2731524;-84
2021/10/06 03:05:30;;;;;;;;;1.20;1.00;;;;;10.34;76.93;100556.53;4602288;28;2731551;-84
2021/10/06 03:07:57;;;;;;;;;3.00;0.00;;;;;10.26;76.59;100556.94;4583391;28;2735682;-85
2021/10/06 03:10:25;;;;;;;;;0.00;0.00;;;;;10.27;76.90;100555.97;4602232;28;2725290;-86
2021/10/06 03:12:52;;;;;;;;;0.00;0.00;;;;;10.32;76.84;100564.56;4601813;28;2725305;-85
2021/10/06 03:15:19;;;;;;;;;3.00;1.00;;;;;10.25;76.34;100549.88;4600569;28;2743029;-85
2021/10/06 03:17:47;;;;;;;;;3.80;0.00;;;;;10.32;76.58;100561.91;4602112;28;2729450;-85
2021/10/06 03:20:16;;;;;;;;;1.20;1.00;;;;;10.29;77.08;100564.72;4601203;28;2728411;-85
2021/10/06 03:22:43;;;;;;;;;3.20;0.00;;;;;10.36;76.50;100583.88;4601123;28;2729460;-85
2021/10/06 03:25:11;;;;;;;;;0.20;0.00;;;;;10.34;76.76;100583.94;4583157;28;2724304;-85
2021/10/06 03:27:38;;;;;;;;;3.00;0.60;;;;;10.11;76.72;100544.47;4600374;28;2737781;-85
2021/10/06 03:30:07;;;;;;;;;2.40;1.00;;;;;10.31;76.57;100583.25;4600692;28;2740222;-86
2021/10/06 03:32:35;;;;;;;;;0.00;0.00;;;;;10.30;76.90;100586.84;4600983;28;2733619;-85
2021/10/06 03:35:04;;;;;;;;;2.60;0.00;;;;;10.32;76.84;100595.59;4601671;28;2729783;-85
2021/10/06 03:37:31;;;;;;;;;2.00;0.00;;;;;10.17;76.41;100574.19;4600910;28;2733643;-85
2021/10/06 03:39:59;;;;;;;;;2.00;0.00;;;;;10.16;76.49;100575.16;4592853;28;2728403;-85
2021/10/06 03:42:26;;;;;;;;;0.60;0.00;;;;;10.11;76.77;100581.66;4583970;28;2719004;-85
2021/10/06 03:44:54;;;;;;;;;3.00;1.00;;;;;10.08;77.02;100576.50;4581642;28;2744043;-85
2021/10/06 03:47:21;;;;;;;;;1.40;0.00;;;;;10.09;76.92;100575.53;4600567;28;2729821;-85
2021/10/06 03:49:49;;;;;;;;;0.20;0.00;;;;;10.22;76.69;100603.19;4583550;28;2725349;-85
2021/10/06 03:52:16;;;;;;;;;0.00;0.00;;;;;10.22;76.84;100612.94;4600493;28;2726312;-86
2021/10/06 03:54:43;;;;;;;;;1.20;0.00;;;;;10.18;76.57;100607.81;4582604;28;2723188;-86
2021/10/06 03:57:11;;;;;;;;;3.20;1.00;;;;;10.17;76.64;100615.84;4600074;28;2740918;-85
2021/10/06 03:59:38;;;;;;;;;4.00;0.00;;;;;10.21;76.94;100621.88;4582235;28;2731544;-85
2021/10/06 04:02:06;;;;;;;;;2.40;0.00;;;;;10.15;76.92;100607.13;4601695;28;2718347;-86
2021/10/06 04:04:33;;;;;;;;;2.60;0.00;;;;;10.00;77.05;100595.50;4600705;28;2725275;-85
2021/10/06 04:07:01;;;;;;;;;2.80;0.00;;;;;10.12;76.60;100629.38;4602235;28;2733579;-85
2021/10/06 04:09:28;;;;;;;;;1.00;0.00;;;;;10.22;76.81;100634.22;4585267;28;2731527;-85
2021/10/06 04:11:56;;;;;;;;;1.80;0.40;;;;;9.90;76.61;100580.97;4585414;28;2734716;-85
2021/10/06 04:14:23;;;;;;;;;2.00;1.00;;;;;10.15;76.85;100637.19;4603672;28;2731575;-85
2021/10/06 04:16:51;;;;;;;;;0.80;0.80;;;;;10.10;77.04;100633.06;4603813;28;2733619;-86
2021/10/06 04:19:18;;;;;;;;;2.20;0.60;;;;;10.09;76.98;100640.19;4603810;28;2729475;-85
2021/10/06 04:21:46;;;;;;;;;2.40;0.00;;;;;10.14;76.84;100647.91;4586386;28;2722134;-85
2021/10/06 04:24:13;;;;;;;;;2.60;0.00;;;;;10.09;77.10;100632.22;4586203;28;2731516;-86
2021/10/06 04:26:41;;;;;;;;;2.00;0.00;;;;;10.17;77.07;100664.53;4604518;28;2725624;-85
2021/10/06 04:29:09;;;;;;;;;1.00;0.00;;;;;10.15;77.04;100657.59;4586085;28;2725286;-86
2021/10/06 04:31:36;;;;;;;;;1.40;0.20;;;;;10.00;76.95;100636.22;4585901;28;2725377;-85
2021/10/06 04:34:04;;;;;;;;;0.80;0.80;;;;;10.10;77.25;100654.31;4603931;28;2727377;-86
2021/10/06 04:36:31;;;;;;;;;4.00;0.00;;;;;10.11;77.13;100648.06;4602499;28;2744047;-85
2021/10/06 04:38:59;;;;;;;;;5.20;0.00;;;;;10.02;77.41;100650.25;4604182;28;2733642;-86
2021/10/06 04:41:26;;;;;;;;;2.20;0.20;;;;;10.02;77.11;100644.09;4603363;28;2736083;-85
2021/10/06 04:43:54;;;;;;;;;2.60;0.00;;;;;10.07;77.60;100662.44;4603017;28;2727400;-85
2021/10/06 04:46:21;;;;;;;;;2.40;1.60;;;;;9.94;77.36;100647.13;4603566;28;2734700;-85
2021/10/06 04:48:48;;;;;;;;;0.60;0.00;;;;;9.94;77.68;100654.25;4604128;28;2721136;-85
2021/10/06 04:51:16;;;;;;;;;0.20;0.00;;;;;9.94;77.37;100654.25;4584984;28;2722161;-86
2021/10/06 04:53:43;;;;;;;;;2.60;2.00;;;;;9.84;77.61;100641.44;4584184;28;2744063;-86
2021/10/06 04:56:11;;;;;;;;;2.00;0.00;;;;;10.03;77.59;100669.69;4585415;28;2723190;-86
2021/10/06 04:58:38;;;;;;;;;3.20;1.00;;;;;9.99;77.48;100676.09;4584077;28;2729505;-86
2021/10/06 05:01:06;;;;;;;;;3.40;1.00;;;;;9.85;77.51;100652.94;4585469;28;2726312;-85
2021/10/06 05:03:33;;;;;;;;;0.40;0.40;;;;;9.99;77.43;100681.41;4602295;28;2728395;-86
2021/10/06 05:06:01;;;;;;;;;1.00;0.00;;;;;9.78;77.68;100643.56;4602727;28;2737798;-84
2021/10/06 05:08:28;;;;;;;;;3.60;0.00;;;;;9.86;77.70;100659.94;4584370;28;2729427;-85
2021/10/06 05:10:56;;;;;;;;;5.40;0.00;;;;;9.74;77.64;100644.66;4603039;28;2735681;-85
2021/10/06 05:13:23;;;;;;;;;2.20;0.00;;;;;9.75;77.73;100654.31;4603538;28;2727352;-85
2021/10/06 05:15:51;;;;;;;;;0.00;0.00;;;;;9.93;77.51;100674.66;4585561;28;2726352;-85
2021/10/06 05:18:18;;;;;;;;;0.00;0.00;;;;;9.76;77.64;100656.03;4602130;28;2728415;-85
2021/10/06 05:20:46;;;;;;;;;2.00;1.00;;;;;9.92;77.73;100699.47;4583927;28;2741955;-85
2021/10/06 05:23:13;;;;;;;;;0.60;0.60;;;;;9.82;77.60;100677.00;4602620;28;2731535;-85
2021/10/06 05:25:42;;;;;;;;;1.00;0.40;;;;;9.94;77.72;100702.06;4602364;28;2725285;-86
2021/10/06 05:28:09;;;;;;;;;1.00;0.00;;;;;9.93;77.52;100711.84;4603349;28;2731909;-85
2021/10/06 05:30:37;;;;;;;;;0.00;0.00;;;;;9.98;77.88;100703.63;4602609;28;2725627;-86
2021/10/06 05:33:04;;;;;;;;;1.00;1.00;;;;;9.71;77.49;100677.50;4584517;28;2728406;-85
2021/10/06 05:35:31;;;;;;;;;1.00;1.00;;;;;9.76;77.49;100682.59;4602724;28;2728450;-85
2021/10/06 05:37:59;;;;;;;;;0.80;0.80;;;;;9.96;77.92;100724.06;4595452;28;2733600;-86
2021/10/06 05:40:27;;;;;;;;;0.40;0.40;;;;;9.85;77.57;100716.66;4585744;28;2726331;-85
2021/10/06 05:42:54;;;;;;;;;3.60;1.00;;;;;9.74;77.66;100695.09;4584683;28;2734645;-86
2021/10/06 05:45:22;;;;;;;;;2.40;0.00;;;;;9.81;77.95;100712.44;4566844;28;2731935;-85
2021/10/06 05:47:49;;;;;;;;;2.60;0.20;;;;;9.74;77.83;100703.91;4585410;28;2725290;-86
2021/10/06 05:50:17;;;;;;;;;2.80;0.00;;;;;9.84;77.90;100714.94;4585344;28;2725293;-85
2021/10/06 05:52:45;;;;;;;;;1.60;0.00;;;;;9.88;77.79;100729.78;4586457;28;2727360;-86
2021/10/06 05:55:12;;;;;;;;;4.00;0.00;;;;;9.79;77.65;100717.81;4602401;28;2727393;-84
2021/10/06 05:57:40;;;;;;;;;3.20;1.00;;;;;9.84;77.58;100731.72;4583559;28;2745069;-85
2021/10/06 06:00:08;;;;;;;;;1.40;0.40;;;;;9.83;77.78;100727.38;4602578;28;2729413;-85
2021/10/06 06:02:41;;;;;;;;;0.60;0.60;;;;;9.76;77.68;100720.63;4602686;28;2728400;-86
2021/10/06 06:05:09;;;;;;;;;0.80;0.80;;;;;9.72;77.47;100719.06;4602861;28;2727338;-86
2021/10/06 06:07:36;;;;;;;;;3.80;0.40;;;;;9.78;77.41;100737.34;4584060;28;2731535;-85
2021/10/06 06:10:05;;;;;;;;;0.40;0.00;;;;;9.87;77.76;100746.66;4595035;28;2725251;-86
2021/10/06 06:12:32;;;;;;;;;1.80;1.00;;;;;9.98;77.93;100759.41;4596025;28;2730498;-85
2021/10/06 06:15:00;;;;;;;;;3.80;0.80;;;;;9.92;77.72;100749.06;4601352;28;2741945;-85
2021/10/06 06:17:27;;;;;;;;;1.20;1.00;;;;;10.02;77.68;100758.31;4600992;28;2732552;-86
2021/10/06 06:19:55;;;;;;;;;3.40;1.00;;;;;10.05;77.86;100747.53;4600272;28;2721146;-85
2021/10/06 06:22:22;;;;;;;;;4.60;0.80;;;;;10.13;77.23;100763.09;4583511;28;2731583;-85
2021/10/06 06:24:50;;;;;;;;;0.20;0.00;;;;;10.15;77.45;100770.03;4601126;28;2722150;-84
2021/10/06 06:27:17;;;;;;;;;2.00;0.60;;;;;10.11;77.25;100759.66;4601049;28;2729468;-85
2021/10/06 06:29:45;;;;;;;;;0.20;0.20;;;;;10.09;77.40;100758.84;4582871;28;2730503;-84
2021/10/06 06:32:12;;;;;;;;;1.00;1.00;;;;;10.17;77.27;100768.16;4600354;28;2737821;-85
2021/10/06 06:34:39;;;;;;;;;0.60;0.20;;;;;10.23;77.27;100769.66;4601233;28;2725274;-84
2021/10/06 06:37:07;;;;;;;;;4.80;0.80;;;;;10.22;77.15;100765.28;4600476;28;2733598;-84
2021/10/06 06:39:34;;;;;;;;;2.00;1.00;;;;;10.27;76.77;100765.91;4600733;28;2733631;-84
2021/10/06 06:42:02;;;;;;;;;2.40;0.20;;;;;10.25;77.00;100756.31;4602028;28;2731543;-84
2021/10/06 06:44:29;;;;;;;;;1.00;0.80;;;;;10.30;77.07;100765.78;4602234;28;2731535;-85
2021/10/06 06:46:57;;;;;;;;;3.00;1.00;;;;;10.33;77.39;100768.28;4602147;28;2724308;-84
2021/10/06 06:49:25;;;;;;;;;3.40;0.40;;;;;10.38;76.78;100751.25;4601807;28;2735690;-85
2021/10/06 06:51:52;;;;;;;;;0.00;0.00;;;;;10.56;76.79;100784.88;4601505;28;2727436;-85
2021/10/06 06:54:20;;;;;;;;;0.00;0.00;;;;;10.61;76.71;100781.97;4602340;28;2725675;-85
2021/10/06 06:56:47;;;;;;;;;1.20;1.00;;;;;10.72;76.74;100787.59;4599820;28;2734748;-85
2021/10/06 06:59:15;;;;;;;;;3.60;1.00;;;;;10.84;76.33;100789.59;4600511;28;2722233;-85
2021/10/06 07:01:42;;;;;;;;;0.20;0.20;;;;;10.91;75.91;100789.28;4601167;28;2725325;-85
2021/10/06 07:04:10;;;;;;;;;2.20;1.00;;;;;11.07;76.07;100794.63;4600245;28;2732590;-85
2021/10/06 07:06:37;;;;;;;;;2.00;1.20;;;;;11.23;75.36;100801.72;4601229;28;2734637;-84
2021/10/06 07:09:05;;;;;;;;;1.20;0.80;;;;;11.36;74.88;100795.75;4602595;28;2725266;-84
2021/10/06 07:11:33;;;;;;;;;0.80;0.80;;;;;11.53;74.70;100798.31;4583910;28;2720439;-86
2021/10/06 07:14:01;;;;;;;;;1.00;0.00;;;;;11.66;74.44;100810.97;4583252;28;2725349;-84
2021/10/06 07:16:28;;;;;;;;;2.60;0.00;;;;;11.79;74.06;100813.78;4574021;28;2737769;-85
2021/10/06 07:18:54;;;;;;;;;2.00;1.00;;;;;11.90;73.25;100816.72;4574323;28;2739900;-85
2021/10/06 07:21:20;;;;;;;;;2.00;0.67;;;;;12.00;73.43;100814.41;4620601;28;2724275;-85
2021/10/06 07:23:48;;;;;;;;;1.00;1.00;;;;;12.08;73.45;100798.81;4599616;28;2728406;-85
2021/10/06 07:26:17;;;;;;;;;0.60;0.60;;;;;12.11;72.23;100795.97;4602338;28;2724263;-85
2021/10/06 07:28:44;;;;;;;;;1.60;1.00;;;;;12.22;72.56;100817.53;4584982;28;2728375;-85
2021/10/06 07:31:12;;;;;;;;;1.00;0.20;;;;;12.18;72.27;100808.00;4602584;28;2724264;-85
2021/10/06 07:33:40;;;;;;;;;1.80;0.60;;;;;12.19;72.70;100815.06;4584216;28;2733600;-85
2021/10/06 07:36:07;;;;;;;;;2.60;0.00;;;;;12.20;72.81;100807.91;4602197;28;2733659;-85
2021/10/06 07:38:35;;;;;;;;;1.00;1.00;;;;;12.28;71.95;100812.81;4603976;28;2739848;-85
2021/10/06 07:41:03;;;;;;;;;2.80;0.80;;;;;12.28;72.18;100826.16;4601916;28;2736724;-85
2021/10/06 07:43:31;;;;;;;;;2.80;0.00;;;;;12.31;72.65;100823.28;4606287;28;2741952;-85
2021/10/06 07:45:58;;;;;;;;;2.00;0.80;;;;;12.40;71.86;100812.94;4604885;28;2729413;-85
2021/10/06 07:48:26;;;;;;;;;3.00;0.00;;;;;12.56;71.22;100834.22;4603201;28;2734676;-85
2021/10/06 07:50:53;;;;;;;;;1.20;1.00;;;;;12.59;71.18;100819.88;4604174;28;2731575;-85
2021/10/06 07:53:20;;;;;;;;;3.00;0.60;;;;;12.89;71.25;100848.31;4604181;28;2731540;-84
2021/10/06 07:55:48;;;;;;;;;0.80;0.80;;;;;13.03;70.93;100858.16;4602930;28;2727735;-85
2021/10/06 07:58:15;;;;;;;;;1.80;1.20;;;;;13.10;70.33;100854.19;4603038;28;2736454;-85
2021/10/06 08:00:43;;;;;;;;;1.00;1.00;;;;;13.29;70.34;100859.22;4601803;28;2735726;-85
2021/10/06 08:03:08;;;;;;;;;4.67;2.00;;;;;13.45;70.07;100873.41;4576860;28;2752368;-86
2021/10/06 08:05:34;;;;;;;;;2.00;1.00;;;;;13.62;69.62;100867.00;4606491;28;2731519;-85
2021/10/06 08:08:02;;;;;;;;;1.80;1.00;;;;;13.65;69.28;100849.88;4624299;28;2733603;-85
2021/10/06 08:10:30;;;;;;;;;2.20;1.60;;;;;13.78;68.90;100855.31;4603869;28;2729820;-89
2021/10/06 08:12:59;;;;;;;;;1.20;0.80;;;;;14.02;67.22;100878.75;4604275;28;2722149;-81
2021/10/06 08:15:26;;;;;;;;;2.20;1.20;;;;;14.04;68.56;100875.03;4603573;28;2728772;-79
2021/10/06 08:17:54;;;;;;;;;3.00;0.80;;;;;14.10;68.34;100892.50;4603979;28;2728454;-80
2021/10/06 08:20:22;;;;;;;;;1.60;0.60;;;;;14.21;68.59;100899.78;4603460;28;2729481;-79
2021/10/06 08:22:47;;;;;;;;;6.00;2.00;;;;;14.36;67.96;100889.94;4577634;28;2744036;-78
2021/10/06 08:25:13;;;;;;;;;3.67;2.67;;;;;14.54;67.88;100893.22;4611450;28;2750285;-79
2021/10/06 08:27:39;;;;;;;;;1.33;1.00;;;;;14.68;67.75;100882.47;4623871;28;2734676;-78
2021/10/06 08:30:05;;;;;;;;;4.00;2.00;;;;;14.80;67.37;100884.28;4559182;28;2750323;-78
2021/10/06 08:32:33;;;;;;;;;1.40;0.00;;;;;14.92;66.50;100876.38;4624404;28;2726308;-78
2021/10/06 08:35:02;;;;;;;;;2.00;1.00;;;;;15.02;65.13;100886.38;4625802;28;2723215;-78
2021/10/06 08:37:28;;;;;;;;;5.67;3.33;;;;;15.07;66.10;100891.41;4576081;28;2750380;-78
2021/10/06 08:39:54;;;;;;;;;4.33;4.00;;;;;15.14;66.62;100883.81;4605304;28;2748222;-78
2021/10/06 08:42:21;;;;;;;;;10.00;5.67;;;;;15.27;65.79;100884.66;4623302;28;2757601;-78
2021/10/06 08:44:51;;;;;;;;;2.50;2.00;;;;;15.36;64.94;100892.06;4599909;28;2750284;-78
2021/10/06 08:47:16;;;;;;;;;3.00;3.00;;;;;15.40;65.19;100895.38;4597714;28;2754487;-77
2021/10/06 08:49:44;;;;;;;;;3.50;2.00;;;;;15.40;65.41;100891.84;4624104;28;2751325;-79
2021/10/06 08:52:11;;;;;;;;;3.00;0.20;;;;;15.41;64.46;100898.94;4606624;28;2733658;-86
2021/10/06 08:54:39;;;;;;;;;4.17;2.50;;;;;15.38;64.80;100899.13;4583544;28;2744039;-84
2021/10/06 08:57:15;;;;;;;;;3.60;1.60;;;;;15.35;64.99;100906.41;4624040;28;2752698;-83
2021/10/06 08:59:44;;;;;;;;;1.40;0.00;;;;;15.41;65.07;100906.97;4603772;28;2727389;-84
2021/10/06 09:02:13;;;;;;;;;2.20;1.40;;;;;15.39;64.81;100924.97;4602354;28;2733651;-85
2021/10/06 09:04:42;;;;;;;;;1.00;1.00;;;;;15.32;64.53;100916.47;4603855;28;2727415;-85
2021/10/06 09:07:10;;;;;;;;;2.00;1.00;;;;;15.34;64.50;100917.25;4585126;28;2733615;-85
2021/10/06 09:09:38;;;;;;;;;2.40;1.00;;;;;15.38;63.90;100912.50;4601724;28;2730463;-82
2021/10/06 09:12:17;;;;;;;;;4.67;2.67;;;;;15.59;64.66;100918.19;4557324;28;2739856;-83
2021/10/06 09:14:47;;;;;;;;;3.17;1.67;;;;;16.00;62.50;100906.38;4618487;28;2747196;-83
2021/10/06 09:17:18;;;;;;;;;3.00;1.20;;;;;16.31;62.58;100910.34;4623969;28;2739857;-83
2021/10/06 09:19:56;;;;;;;;;4.00;0.00;;;;;16.59;62.72;100902.03;4603351;28;2742993;-83
2021/10/06 09:22:32;;;;;;;;;9.00;1.00;;;;;16.97;61.33;100911.75;4574117;28;2757630;-83
2021/10/06 09:25:03;;;;;;;;;1.20;0.20;;;;;17.18;61.51;100911.94;4625078;28;2725302;-83
2021/10/06 09:27:35;;;;;;;;;1.00;1.00;;;;;16.94;60.94;100875.22;4602119;28;2741936;-83
2021/10/06 09:30:19;;;;;;;;;4.00;2.00;;;;;16.98;60.98;100908.09;4576862;28;2751348;-83
2021/10/06 09:32:47;;;;;;;;;4.00;2.20;;;;;17.02;59.44;100910.41;4604438;28;2731528;-83
2021/10/06 09:35:17;;;;;;;;;0.00;0.00;;;;;16.87;59.71;100899.00;4603715;28;2725368;-83
2021/10/06 09:37:54;;;;;;;;;1.40;1.20;;;;;16.81;60.46;100920.09;4602966;28;2731555;-83
2021/10/06 09:40:24;;;;;;;;;1.40;1.00;;;;;16.66;60.44;100931.03;4601895;28;2737813;-83
2021/10/06 09:42:53;;;;;;;;;1.20;0.40;;;;;16.57;60.45;100929.00;4602543;28;2727406;-83
2021/10/06 09:45:21;;;;;;;;;1.60;1.60;;;;;16.63;60.21;100939.31;4584121;28;2735717;-82
2021/10/06 09:48:09;;;;;;;;;3.20;1.00;;;;;16.83;60.44;100929.75;4601853;28;2737790;-83
2021/10/06 09:50:42;;;;;;;;;3.20;1.00;;;;;17.27;58.91;100929.16;4602424;28;2738815;-82
2021/10/06 09:53:16;;;;;;;;;5.67;1.67;;;;;17.64;59.88;100934.34;4601278;28;2736717;-83
2021/10/06 09:55:49;;;;;;;;;1.00;1.00;;;;;17.93;59.38;100946.34;4623435;28;2726323;-82
2021/10/06 09:58:18;;;;;;;;;3.00;1.00;;;;;18.27;59.09;100932.84;4602439;28;2727338;-83
2021/10/06 10:00:48;;;;;;;;;1.20;1.20;;;;;18.62;57.12;100923.69;4584917;28;2728427;-82
2021/10/06 10:03:16;;;;;;;;;0.00;0.00;;;;;18.86;57.05;100924.47;4602459;28;2725266;-82
2021/10/06 10:05:43;;;;;;;;;3.80;0.20;;;;;19.18;56.22;100929.81;4601951;28;2727400;-83
2021/10/06 10:08:11;;;;;;;;;3.00;1.00;;;;;19.51;55.29;100911.72;4602395;28;2731516;-82
2021/10/06 10:10:39;;;;;;;;;1.00;0.80;;;;;19.91;53.34;100934.31;4584373;28;2729436;-82
2021/10/06 10:13:06;;;;;;;;;2.40;1.20;;;;;20.01;53.76;100932.53;4584091;28;2734658;-84
2021/10/06 10:15:34;;;;;;;;;1.20;1.00;;;;;20.12;53.74;100927.03;4583603;28;2735738;-82
2021/10/06 10:18:05;;;;;;;;;0.40;0.40;;;;;20.24;53.86;100933.16;4603302;28;2722177;-84
2021/10/06 10:20:39;;;;;;;;;2.60;0.80;;;;;20.41;53.84;100936.16;4602590;28;2739872;-84
2021/10/06 10:23:12;;;;;;;;;0.20;0.20;;;;;20.45;52.91;100932.19;4602617;28;2725262;-83
2021/10/06 10:25:45;;;;;;;;;0.80;0.00;;;;;20.49;52.38;100931.78;4602317;28;2726304;-84
2021/10/06 10:28:18;;;;;;;;;2.50;0.50;;;;;20.50;51.30;100938.03;4584217;28;2736775;-84
2021/10/06 10:30:54;;;;;;;;;1.60;0.20;;;;;20.49;51.11;100948.00;4625877;28;2722177;-84
2021/10/06 10:33:42;;;;;;;;;2.40;0.80;;;;;20.45;52.64;100962.78;4602285;28;2730898;-83
2021/10/06 10:36:32;;;;;;;;;2.00;0.60;;;;;20.50;52.33;100957.78;4601631;28;2733587;-83
2021/10/06 10:39:06;;;;;;;;;1.60;0.00;;;;;20.67;52.68;100963.53;4602639;28;2725286;-84
2021/10/06 10:41:44;;;;;;;;;1.80;1.00;;;;;20.79;50.50;100948.91;4602154;28;2741975;-83
2021/10/06 10:44:11;;;;;;;;;1.80;0.00;;;;;20.98;49.45;100960.72;4601566;28;2723194;-82
2021/10/06 10:47:02;;;;;;;;;1.33;1.33;;;;;21.02;49.87;100962.09;4600683;28;2736725;-83
2021/10/06 10:49:52;;;;;;;;;1.20;1.00;;;;;21.00;51.12;100954.16;4624748;28;2726299;-83
2021/10/06 10:52:49;;;;;;;;;1.00;1.00;;;;;21.35;50.65;100957.25;4602358;28;2727710;-90
2021/10/06 10:55:37;;;;;;;;;1.80;0.40;;;;;21.90;48.91;100967.34;4610551;28;2738807;-90
2021/10/06 10:58:28;;;;;;;;;0.20;0.00;;;;;22.28;47.40;100976.28;4603210;28;2725321;-89
2021/10/06 11:00:57;;;;;;;;;1.20;0.00;;;;;22.01;47.23;100956.34;4603619;28;2730835;-88
2021/10/06 11:03:25;;;;;;;;;0.60;0.60;;;;;22.14;46.38;100974.09;4602890;28;2731544;-81
2021/10/06 11:05:53;;;;;;;;;3.00;1.00;;;;;22.30;45.24;100968.84;4603615;28;2736752;-80
2021/10/06 11:08:29;;;;;;;;;1.40;0.40;;;;;22.29;46.03;100971.72;4603229;28;2735718;-80
2021/10/06 11:11:09;;;;;;;;;0.60;0.20;;;;;22.37;45.90;100967.28;4602365;28;2731496;-81
2021/10/06 11:13:40;;;;;;;;;0.80;0.80;;;;;22.51;46.90;100956.94;4583999;28;2732563;-80
2021/10/06 11:16:08;;;;;;;;;2.60;0.00;;;;;22.84;46.51;100970.81;4602829;28;2733611;-80